< < Back
Terminal Aerodrome Forecast


Current Version              Previous Versions:   1  2  3  4  5  6  7  8  9  

Terminal Aerodrome Forecast

681
FTUS42 KTAE 060520
TAFVLD
TAF
KVLD 060520Z 0606/0706 31004KT P6SM SKC
     FM061500 32009KT P6SM SKC
     FM070000 31003KT P6SM SKC=

Latest METAR

679
SAUS70 KWBC 060700 RRK
MTRVLD
METAR KVLD 060653Z AUTO 00000KT 10SM CLR 10/07 A2986 RMK AO2 SLP118
T01000072


USA.gov is the U.S. government's official web portal to all federal, state and local government web resources and services.